Time;durP1;ratioP1;P1;durP2;ratioP2;P2;SDS_P1;SDS_P2;PMS_P1;PMS_P2;Temp;Humidity;BMP_temperature;BMP_pressure;BME280_temperature;BME280_humidity;BME280_pressure;Samples;Min_cycle;Max_cycle;Signal;HPM_P1;HPM_P2
2021/10/20 00:00:14;;;;;;;9.43;6.03;;;;;;;11.46;78.34;100116.31;1089476;39;20835;-78
2021/10/20 00:01:16;;;;;;;10.90;6.22;;;;;;;11.46;78.14;100112.78;1087854;54;20721;-79
2021/10/20 00:02:27;;;;;;;8.88;6.03;;;;;;;11.43;78.56;100115.75;1087985;54;20041;-78
2021/10/20 00:03:28;;;;;;;8.60;5.97;;;;;;;11.45;78.13;100108.41;1087942;54;20718;-79
2021/10/20 00:04:32;;;;;;;8.65;6.07;;;;;;;11.44;78.16;100114.75;1087960;54;20041;-79
2021/10/20 00:05:34;;;;;;;12.00;5.72;;;;;;;11.46;78.31;100112.78;1091720;39;20677;-79
2021/10/20 00:06:38;;;;;;;9.10;6.88;;;;;;;11.41;78.05;100110.53;1088051;54;20033;-80
2021/10/20 00:07:40;;;;;;;9.55;5.70;;;;;;;11.41;78.56;100109.72;1090170;39;20633;-79
2021/10/20 00:08:51;;;;;;;7.78;5.35;;;;;;;11.36;78.51;100111.00;1088098;54;20729;-79
2021/10/20 00:09:54;;;;;;;8.40;5.80;;;;;;;11.35;78.60;100103.94;1092008;39;20709;-79
2021/10/20 00:10:59;;;;;;;9.68;5.93;;;;;;;11.31;78.59;100097.22;1087998;54;20033;-79
2021/10/20 00:12:06;;;;;;;10.27;6.05;;;;;;;11.29;78.81;100103.72;1087826;54;20090;-79
2021/10/20 00:13:10;;;;;;;8.07;5.65;;;;;;;11.31;78.75;100102.56;1087961;54;20847;-80
2021/10/20 00:14:12;;;;;;;11.02;5.85;;;;;;;11.26;78.64;100094.13;1087749;54;20035;-77
2021/10/20 00:15:19;;;;;;;9.38;6.28;;;;;;;11.26;78.82;100102.16;1087764;54;20041;-77
2021/10/20 00:16:22;;;;;;;10.15;5.90;;;;;;;11.25;78.61;100092.44;1087695;54;20391;-78
2021/10/20 00:17:28;;;;;;;8.15;5.15;;;;;;;11.22;78.57;100092.75;1087755;54;20022;-77
2021/10/20 00:18:31;;;;;;;8.80;6.28;;;;;;;11.20;79.07;100094.72;1088126;46;20026;-77
2021/10/20 00:19:37;;;;;;;7.50;5.35;;;;;;;11.20;78.75;100100.09;1087834;54;20068;-78
2021/10/20 00:20:39;;;;;;;7.88;5.68;;;;;;;11.20;78.75;100094.72;1087850;54;20031;-78
2021/10/20 00:21:43;;;;;;;9.30;6.40;;;;;;;11.16;79.02;100094.19;1087714;54;20053;-77
2021/10/20 00:22:47;;;;;;;8.20;5.72;;;;;;;11.16;78.86;100093.31;1087791;54;20038;-77
2021/10/20 00:23:52;;;;;;;8.15;5.30;;;;;;;11.16;78.71;100088.84;1087830;54;20768;-78
2021/10/20 00:24:53;;;;;;;9.40;6.38;;;;;;;11.11;78.96;100085.75;1087844;54;20034;-77
2021/10/20 00:25:57;;;;;;;8.52;5.70;;;;;;;11.10;79.10;100085.91;1090719;39;20673;-79
2021/10/20 00:26:59;;;;;;;9.05;5.88;;;;;;;11.12;79.30;100089.28;1087744;54;20035;-77
2021/10/20 00:28:09;;;;;;;11.93;6.28;;;;;;;11.07;79.29;100081.69;1087725;54;20030;-79
2021/10/20 00:29:10;;;;;;;8.57;5.65;;;;;;;11.10;79.25;100077.88;1087783;54;20038;-78
2021/10/20 00:30:17;;;;;;;7.30;4.88;;;;;;;11.12;79.05;100083.94;1087848;54;20042;-78
2021/10/20 00:31:21;;;;;;;9.30;5.88;;;;;;;11.13;79.00;100074.91;1087891;54;20658;-80
2021/10/20 00:32:25;;;;;;;7.75;5.88;;;;;;;11.09;78.93;100071.69;1087773;54;20038;-77
2021/10/20 00:33:27;;;;;;;8.25;5.78;;;;;;;11.00;79.36;100073.41;1088089;54;20038;-79
2021/10/20 00:34:31;;;;;;;8.85;5.57;;;;;;;11.01;79.46;100077.78;1087881;54;20049;-78
2021/10/20 00:35:33;;;;;;;9.68;6.40;;;;;;;11.01;79.38;100071.56;1087508;54;20042;-78
2021/10/20 00:36:38;;;;;;;9.40;6.25;;;;;;;11.02;79.38;100071.44;1087846;54;20034;-78
2021/10/20 00:37:41;;;;;;;8.05;5.45;;;;;;;11.04;79.47;100074.81;1087556;54;20038;-78
2021/10/20 00:38:45;;;;;;;9.73;5.50;;;;;;;11.02;79.58;100071.44;1087481;54;20030;-77
2021/10/20 00:39:47;;;;;;;7.90;5.22;;;;;;;11.02;79.41;100068.75;1090952;39;20683;-78
2021/10/20 00:40:53;;;;;;;7.80;5.75;;;;;;;11.04;79.20;100068.59;1087796;54;20041;-77
2021/10/20 00:41:55;;;;;;;10.30;5.95;;;;;;;11.01;79.37;100064.41;1087793;54;20086;-79
2021/10/20 00:43:00;;;;;;;9.45;6.20;;;;;;;11.03;79.40;100061.56;1091938;39;20633;-80
2021/10/20 00:44:05;;;;;;;9.52;6.38;;;;;;;11.03;79.35;100059.75;1087707;54;20034;-80
2021/10/20 00:45:11;;;;;;;7.53;5.72;;;;;;;11.04;79.04;100056.09;1087927;39;20892;-79
2021/10/20 00:46:24;;;;;;;7.88;5.28;;;;;;;11.04;79.01;100050.75;1094139;31;21468;-77
2021/10/20 00:47:29;;;;;;;7.30;5.35;;;;;;;10.99;79.42;100049.50;1087581;54;20819;-78
2021/10/20 00:48:33;;;;;;;8.23;5.15;;;;;;;11.01;79.16;100047.50;1087445;54;20034;-77
2021/10/20 00:49:35;;;;;;;8.63;5.05;;;;;;;11.02;79.05;100046.50;1087646;54;20026;-77
2021/10/20 00:50:39;;;;;;;7.00;4.88;;;;;;;11.00;79.21;100043.16;1087766;54;20761;-77
2021/10/20 00:51:41;;;;;;;8.95;5.38;;;;;;;10.99;79.43;100036.13;1087754;54;20045;-77
2021/10/20 00:52:45;;;;;;;8.05;5.10;;;;;;;11.04;79.28;100036.50;1087053;54;20885;-77
2021/10/20 00:53:47;;;;;;;9.10;5.43;;;;;;;11.00;79.25;100043.16;1088212;47;20030;-79
2021/10/20 00:54:53;;;;;;;9.25;5.53;;;;;;;11.04;79.46;100036.50;1087642;54;20820;-78
2021/10/20 00:55:54;;;;;;;8.30;5.75;;;;;;;11.04;79.54;100036.50;1087748;54;20034;-77
2021/10/20 00:56:59;;;;;;;9.05;5.32;;;;;;;11.02;79.51;100036.66;1087738;54;20030;-77
2021/10/20 00:58:00;;;;;;;9.35;6.10;;;;;;;10.97;79.51;100030.91;1087705;54;20038;-76
2021/10/20 00:59:07;;;;;;;8.68;5.60;;;;;;;11.03;79.11;100030.31;1087655;54;20061;-77
2021/10/20 01:00:10;;;;;;;8.30;5.57;;;;;;;11.07;78.95;100025.50;1087566;54;20057;-77
2021/10/20 01:01:16;;;;;;;7.28;4.90;;;;;;;11.09;78.85;100028.88;1087705;54;20316;-79
2021/10/20 01:02:18;;;;;;;8.23;5.10;;;;;;;11.05;79.01;100025.66;1087654;54;20038;-80
2021/10/20 01:03:22;;;;;;;8.93;5.63;;;;;;;11.07;78.99;100023.66;1088538;39;20650;-79
2021/10/20 01:04:23;;;;;;;8.20;5.20;;;;;;;11.06;78.70;100019.31;1087681;54;20030;-76
2021/10/20 01:05:28;;;;;;;7.90;5.60;;;;;;;11.02;78.93;100019.75;1087552;54;20030;-80
2021/10/20 01:06:33;;;;;;;8.05;5.10;;;;;;;11.03;78.80;100019.63;1087720;54;20087;-79
2021/10/20 01:07:38;;;;;;;8.63;5.95;;;;;;;11.03;78.85;100016.09;1087766;54;20057;-80
2021/10/20 01:08:40;;;;;;;7.90;5.28;;;;;;;11.04;78.72;100009.75;1088982;39;20650;-78
2021/10/20 01:09:44;;;;;;;9.10;5.30;;;;;;;11.00;78.92;100003.84;1087644;54;20745;-77
2021/10/20 01:10:46;;;;;;;9.15;5.93;;;;;;;10.98;79.05;99999.66;1087618;54;20061;-77
2021/10/20 01:11:50;;;;;;;8.07;5.30;;;;;;;10.99;78.99;100002.16;1087646;54;20030;-77
2021/10/20 01:12:55;;;;;;;7.80;5.55;;;;;;;10.98;79.00;99988.97;1087663;54;20964;-77
2021/10/20 01:13:59;;;;;;;9.07;6.55;;;;;;;10.82;79.27;99997.63;1087656;54;20034;-77
2021/10/20 01:15:05;;;;;;;10.73;6.50;;;;;;;10.84;79.23;100001.00;1087717;54;20061;-80
2021/10/20 01:16:09;;;;;;;8.48;5.75;;;;;;;10.85;79.40;99991.97;1087651;54;20041;-78
2021/10/20 01:17:11;;;;;;;9.32;5.82;;;;;;;10.81;79.38;99995.94;1090674;39;20649;-78
2021/10/20 01:18:16;;;;;;;9.00;6.00;;;;;;;10.83;79.15;99996.63;1087665;54;20037;-77
2021/10/20 01:19:19;;;;;;;8.75;6.38;;;;;;;10.80;79.31;99991.56;1087542;54;20061;-76
2021/10/20 01:20:26;;;;;;;8.80;5.80;;;;;;;10.84;79.08;99990.28;1087661;54;20030;-78
2021/10/20 01:21:30;;;;;;;7.75;4.97;;;;;;;10.84;78.63;99984.94;1087671;54;20041;-76
2021/10/20 01:22:35;;;;;;;7.55;5.07;;;;;;;10.87;78.76;99985.47;1087576;54;20015;-77
2021/10/20 01:23:37;;;;;;;7.35;5.15;;;;;;;10.90;78.70;99989.69;1087818;47;20038;-77
2021/10/20 01:24:42;;;;;;;8.70;5.78;;;;;;;10.88;78.59;99989.00;1087654;54;20041;-78
2021/10/20 01:25:46;;;;;;;9.15;5.60;;;;;;;10.86;78.74;99991.81;1087626;54;20027;-78
2021/10/20 01:26:51;;;;;;;9.65;5.57;;;;;;;10.85;78.61;99990.13;1087642;54;20030;-78
2021/10/20 01:27:54;;;;;;;9.35;5.63;;;;;;;10.84;78.21;99983.09;1087644;54;20039;-77
2021/10/20 01:28:58;;;;;;;7.10;5.05;;;;;;;10.84;78.50;99985.78;1087730;54;20394;-78
2021/10/20 01:30:01;;;;;;;7.72;5.25;;;;;;;10.77;78.34;99988.19;1089845;39;20543;-77
2021/10/20 01:31:05;;;;;;;8.10;5.25;;;;;;;10.78;78.54;99989.06;1087587;54;21253;-76
2021/10/20 01:32:07;;;;;;;8.93;5.70;;;;;;;10.71;78.34;99991.47;1087659;54;20034;-77
2021/10/20 01:33:11;;;;;;;8.15;5.28;;;;;;;10.73;78.58;99991.31;1087450;54;20760;-78
2021/10/20 01:34:13;;;;;;;9.27;5.47;;;;;;;10.74;78.60;99985.84;1088874;39;20311;-77
2021/10/20 01:35:17;;;;;;;9.40;6.07;;;;;;;10.61;78.78;99982.63;1087585;54;20046;-77
2021/10/20 01:36:18;;;;;;;9.85;5.65;;;;;;;10.62;79.01;99984.31;1089787;39;20590;-78
2021/10/20 01:37:28;;;;;;;9.38;5.65;;;;;;;10.59;78.87;99982.78;1087638;54;20027;-78
2021/10/20 01:38:30;;;;;;;9.35;6.15;;;;;;;10.55;78.73;99975.22;1087779;54;20034;-77
2021/10/20 01:39:34;;;;;;;9.95;6.50;;;;;;;10.52;79.06;99970.16;1087966;54;20030;-78
2021/10/20 01:40:36;;;;;;;8.85;6.07;;;;;;;10.55;79.15;99976.03;1087938;54;20062;-77
2021/10/20 01:41:41;;;;;;;8.75;5.80;;;;;;;10.54;78.99;99970.84;1087968;54;20086;-76
2021/10/20 01:42:45;;;;;;;8.90;5.50;;;;;;;10.56;79.00;99971.56;1088007;54;20069;-78
2021/10/20 01:43:48;;;;;;;8.65;5.40;;;;;;;10.54;78.88;99970.84;1087950;54;20033;-78
2021/10/20 01:44:54;;;;;;;10.80;6.07;;;;;;;10.48;78.95;99966.94;1088055;54;20113;-79
2021/10/20 01:45:56;;;;;;;9.30;6.10;;;;;;;10.43;79.16;99951.34;1087904;54;20035;-78
2021/10/20 01:47:00;;;;;;;10.02;5.75;;;;;;;10.44;79.00;99960.19;1088012;54;20033;-78
2021/10/20 01:48:02;;;;;;;8.82;5.82;;;;;;;10.43;79.32;99947.84;1087985;54;20034;-78
2021/10/20 01:49:07;;;;;;;8.60;5.95;;;;;;;10.41;79.29;99949.81;1087868;54;20030;-79
2021/10/20 01:50:12;;;;;;;8.68;5.75;;;;;;;10.38;79.35;99956.28;1087956;54;20045;-79
2021/10/20 01:51:16;;;;;;;8.85;6.15;;;;;;;10.39;79.21;99951.78;1087960;54;20041;-77
2021/10/20 01:52:18;;;;;;;10.30;5.90;;;;;;;10.37;79.52;99953.72;1088022;54;20035;-77
2021/10/20 01:53:24;;;;;;;9.23;5.60;;;;;;;10.36;79.43;99952.88;1087536;54;20030;-77
2021/10/20 01:54:26;;;;;;;8.70;5.30;;;;;;;10.32;79.54;99947.97;1089905;39;20700;-78
2021/10/20 01:55:30;;;;;;;11.25;6.00;;;;;;;10.34;79.38;99946.84;1088403;39;20575;-78
2021/10/20 01:56:32;;;;;;;9.25;5.20;;;;;;;10.35;79.26;99951.19;1087982;54;20362;-77
2021/10/20 01:57:36;;;;;;;8.32;4.90;;;;;;;10.33;79.29;99945.16;1087897;54;20034;-78
2021/10/20 01:58:38;;;;;;;9.93;6.40;;;;;;;10.29;79.48;99946.44;1087980;54;20027;-77
2021/10/20 01:59:42;;;;;;;7.45;5.28;;;;;;;10.28;79.68;99950.09;1087970;54;20030;-77
2021/10/20 02:00:44;;;;;;;9.35;5.85;;;;;;;10.25;79.90;99956.53;1087848;54;20066;-77
2021/10/20 02:01:48;;;;;;;8.60;5.40;;;;;;;10.26;79.69;99960.06;1091157;39;20668;-78
2021/10/20 02:02:52;;;;;;;10.90;6.32;;;;;;;10.25;79.84;99961.06;1088060;54;20045;-78
2021/10/20 02:03:58;;;;;;;9.68;5.60;;;;;;;10.20;79.57;99961.50;1088159;54;20053;-78
2021/10/20 02:05:06;;;;;;;8.48;5.30;;;;;;;10.18;79.69;99958.13;1088076;54;20038;-78
2021/10/20 02:06:18;;;;;;;8.20;6.10;;;;;;;10.20;79.80;99960.66;1088056;54;20035;-77
2021/10/20 02:07:19;;;;;;;9.27;5.82;;;;;;;10.20;79.65;99958.00;1087922;54;20041;-78
2021/10/20 02:08:26;;;;;;;9.43;5.50;;;;;;;10.15;79.57;99958.44;1088323;46;20090;-78
2021/10/20 02:09:28;;;;;;;9.80;5.63;;;;;;;10.15;79.97;99958.44;1087849;54;20120;-77
2021/10/20 02:10:32;;;;;;;7.55;5.65;;;;;;;10.18;79.53;99958.13;1087877;54;20717;-79
2021/10/20 02:11:34;;;;;;;10.18;6.30;;;;;;;10.11;79.66;99952.50;1087971;54;20038;-78
2021/10/20 02:12:38;;;;;;;10.52;5.60;;;;;;;10.08;79.79;99949.28;1087802;54;20034;-78
2021/10/20 02:13:41;;;;;;;8.35;5.72;;;;;;;10.08;79.95;99951.97;1087850;54;20453;-78
2021/10/20 02:14:45;;;;;;;9.45;5.57;;;;;;;10.09;79.76;99951.84;1087902;54;20027;-79
2021/10/20 02:15:47;;;;;;;8.30;4.82;;;;;;;10.10;79.74;99947.31;1087826;54;21055;-78
2021/10/20 02:16:51;;;;;;;8.10;5.38;;;;;;;10.08;79.67;99950.16;1088832;46;20041;-78
2021/10/20 02:17:52;;;;;;;9.52;5.03;;;;;;;10.07;79.67;99945.78;1087946;54;20039;-77
2021/10/20 02:18:56;;;;;;;10.68;5.93;;;;;;;10.08;79.68;99950.16;1087805;54;20039;-79
2021/10/20 02:20:01;;;;;;;9.05;5.63;;;;;;;10.01;79.96;99940.16;1087931;54;20030;-78
2021/10/20 02:21:02;;;;;;;7.95;5.07;;;;;;;9.99;79.94;99946.50;1087915;54;20038;-77
2021/10/20 02:22:07;;;;;;;9.65;6.18;;;;;;;9.93;79.74;99949.75;1087875;54;20037;-78
2021/10/20 02:23:09;;;;;;;10.02;5.55;;;;;;;9.88;79.98;99943.16;1087918;54;20038;-78
2021/10/20 02:24:16;;;;;;;9.80;6.53;;;;;;;9.87;80.11;99944.97;1087797;54;20038;-77
2021/10/20 02:25:17;;;;;;;8.13;5.28;;;;;;;9.82;80.38;99942.72;1087883;54;20053;-78
2021/10/20 02:26:23;;;;;;;8.25;5.57;;;;;;;9.73;80.09;99948.91;1087879;54;20034;-77
2021/10/20 02:27:24;;;;;;;9.50;6.55;;;;;;;9.63;80.65;99940.09;1090579;46;20034;-76
2021/10/20 02:28:29;;;;;;;9.50;6.10;;;;;;;9.57;80.92;99938.81;1087872;54;20036;-78
2021/10/20 02:29:31;;;;;;;10.93;6.22;;;;;;;9.54;80.96;99933.75;1090295;39;20566;-79
2021/10/20 02:30:35;;;;;;;8.35;5.57;;;;;;;9.59;80.97;99939.50;1087795;54;20030;-78
2021/10/20 02:31:37;;;;;;;8.43;4.75;;;;;;;9.63;80.81;99940.09;1087914;54;20057;-78
2021/10/20 02:32:41;;;;;;;7.80;4.90;;;;;;;9.64;80.88;99934.59;1087928;54;20036;-78
2021/10/20 02:33:43;;;;;;;8.57;5.13;;;;;;;9.60;80.79;99935.03;1087970;54;20034;-78
2021/10/20 02:34:47;;;;;;;8.27;5.00;;;;;;;9.60;80.86;99935.03;1087618;54;20031;-77
2021/10/20 02:35:49;;;;;;;8.32;4.85;;;;;;;9.61;80.56;99940.22;1087526;54;20039;-78
2021/10/20 02:36:53;;;;;;;7.95;5.07;;;;;;;9.57;80.58;99927.28;1087843;54;20038;-78
2021/10/20 02:37:55;;;;;;;8.00;5.10;;;;;;;9.58;80.82;99935.19;1090423;39;20670;-77
2021/10/20 02:38:59;;;;;;;7.07;4.88;;;;;;;9.56;80.76;99938.94;1087384;54;20030;-77
2021/10/20 02:40:05;;;;;;;7.50;5.00;;;;;;;9.56;80.75;99934.47;1087505;54;20034;-77
2021/10/20 02:41:09;;;;;;;8.00;5.10;;;;;;;9.48;80.91;99932.50;1087490;54;20037;-79
2021/10/20 02:42:11;;;;;;;8.30;5.40;;;;;;;9.43;80.98;99926.75;1090602;39;20575;-79
2021/10/20 02:43:15;;;;;;;8.40;4.78;;;;;;;9.39;81.14;99933.34;1087491;54;20074;-78
2021/10/20 02:44:17;;;;;;;6.80;4.57;;;;;;;9.41;81.13;99934.03;1087533;54;20031;-77
2021/10/20 02:45:21;;;;;;;7.30;4.60;;;;;;;9.40;80.99;99934.19;1087892;54;20062;-79
2021/10/20 02:46:23;;;;;;;7.15;4.57;;;;;;;9.43;80.91;99928.56;1087878;54;20046;-78
2021/10/20 02:47:27;;;;;;;6.40;4.53;;;;;;;9.44;80.97;99920.44;1092486;39;20152;-78
2021/10/20 02:48:28;;;;;;;8.50;4.47;;;;;;;9.40;80.86;99923.53;1087533;54;20037;-78
2021/10/20 02:49:33;;;;;;;7.05;4.50;;;;;;;9.44;80.68;99924.91;1087712;54;20098;-78
2021/10/20 02:50:35;;;;;;;6.55;4.45;;;;;;;9.48;80.85;99921.00;1088388;46;20034;-79
2021/10/20 02:51:39;;;;;;;6.43;4.10;;;;;;;9.48;80.49;99919.16;1087811;54;20030;-77
2021/10/20 02:52:41;;;;;;;7.60;4.47;;;;;;;9.49;80.45;99910.16;1087821;54;20034;-77
2021/10/20 02:53:45;;;;;;;5.97;3.72;;;;;;;9.54;80.24;99914.25;1090002;39;20826;-78
2021/10/20 02:54:46;;;;;;;5.25;3.45;;;;;;;9.55;80.43;99902.56;1087384;54;20038;-78
2021/10/20 02:55:53;;;;;;;7.07;3.80;;;;;;;9.57;80.34;99904.13;1087841;54;20035;-78
2021/10/20 02:56:55;;;;;;;6.80;4.20;;;;;;;9.57;80.27;99904.13;1087743;54;20046;-78
2021/10/20 02:58:00;;;;;;;6.40;3.90;;;;;;;9.60;80.29;99897.66;1088259;39;20704;-79
2021/10/20 02:59:01;;;;;;;7.43;3.92;;;;;;;9.61;80.10;99891.34;1087764;54;20046;-79
2021/10/20 03:00:07;;;;;;;6.45;3.78;;;;;;;9.65;80.31;99890.06;1087758;54;20042;-78
2021/10/20 03:01:08;;;;;;;11.35;4.03;;;;;;;9.67;80.18;99888.94;1087793;54;20709;-78
2021/10/20 03:02:13;;;;;;;6.80;4.32;;;;;;;9.70;80.17;99886.97;1087825;54;20037;-78
2021/10/20 03:03:14;;;;;;;5.80;3.90;;;;;;;9.71;79.97;99886.84;1087838;54;20049;-80
2021/10/20 03:04:18;;;;;;;6.28;4.05;;;;;;;9.72;79.91;99880.50;1087733;54;20053;-79
2021/10/20 03:05:20;;;;;;;6.45;4.03;;;;;;;9.70;79.88;99877.13;1087781;54;20034;-78
2021/10/20 03:06:24;;;;;;;5.72;3.58;;;;;;;9.71;79.64;99872.63;1087678;54;20042;-78
2021/10/20 03:07:26;;;;;;;7.00;4.32;;;;;;;9.70;79.87;99865.59;1087809;54;20034;-79
2021/10/20 03:08:30;;;;;;;6.07;4.10;;;;;;;9.73;79.92;99870.66;1087820;54;20038;-78
2021/10/20 03:09:32;;;;;;;5.43;3.50;;;;;;;9.72;79.88;99856.50;1091851;39;20618;-78
2021/10/20 03:10:36;;;;;;;6.00;3.60;;;;;;;9.73;79.88;99865.31;1087769;54;20061;-78
2021/10/20 03:11:40;;;;;;;5.85;3.63;;;;;;;9.73;79.79;99860.00;1087711;54;20034;-77
2021/10/20 03:12:45;;;;;;;6.50;4.03;;;;;;;9.72;79.92;99856.50;1087707;54;20037;-78
2021/10/20 03:13:46;;;;;;;6.05;4.07;;;;;;;9.68;79.62;99858.56;1087756;54;20045;-77
2021/10/20 03:14:50;;;;;;;6.57;4.05;;;;;;;9.71;80.07;99859.28;1087747;54;20031;-77
2021/10/20 03:15:52;;;;;;;6.68;4.45;;;;;;;9.64;80.21;99856.34;1087760;54;20034;-77
2021/10/20 03:16:56;;;;;;;7.22;4.75;;;;;;;9.65;79.93;99861.56;1087683;54;20777;-77
2021/10/20 03:17:57;;;;;;;6.22;4.55;;;;;;;9.59;80.35;99867.44;1087752;54;20031;-78
2021/10/20 03:19:02;;;;;;;8.88;5.30;;;;;;;9.55;80.54;99865.19;1087849;54;20034;-78
2021/10/20 03:20:08;;;;;;;6.95;4.70;;;;;;;9.60;80.10;99863.78;1087828;54;20041;-78
2021/10/20 03:21:12;;;;;;;6.95;4.20;;;;;;;9.55;80.18;99879.41;1087872;54;20036;-79
2021/10/20 03:22:14;;;;;;;7.05;4.78;;;;;;;9.54;80.59;99876.88;1087773;54;20034;-79
2021/10/20 03:23:18;;;;;;;8.98;5.28;;;;;;;9.51;80.47;99870.84;1087834;54;20018;-77
2021/10/20 03:24:20;;;;;;;8.45;4.78;;;;;;;9.58;80.36;99870.28;1087858;54;20034;-77
2021/10/20 03:25:24;;;;;;;8.68;4.82;;;;;;;9.57;80.01;99866.78;1087845;54;20035;-77
2021/10/20 03:26:26;;;;;;;7.90;4.45;;;;;;;9.60;80.26;99868.31;1087803;54;20031;-78
2021/10/20 03:27:32;;;;;;;7.15;4.40;;;;;;;9.56;80.06;99874.91;1087782;54;20705;-79
2021/10/20 03:28:34;;;;;;;7.75;4.88;;;;;;;9.58;80.03;99873.78;1087762;54;20045;-78
2021/10/20 03:29:38;;;;;;;6.95;3.97;;;;;;;9.58;79.93;99870.28;1087798;54;20019;-78
2021/10/20 03:30:39;;;;;;;7.40;4.50;;;;;;;9.58;79.97;99872.94;1087681;54;20034;-78
2021/10/20 03:31:44;;;;;;;6.65;4.15;;;;;;;9.61;79.94;99878.00;1087866;54;20035;-79
2021/10/20 03:32:46;;;;;;;6.90;4.53;;;;;;;9.56;79.71;99870.41;1088786;39;20693;-79
2021/10/20 03:33:50;;;;;;;7.57;4.78;;;;;;;9.60;79.78;99870.97;1087715;54;20131;-78
2021/10/20 03:34:52;;;;;;;9.75;5.55;;;;;;;9.51;79.73;99862.84;1087751;54;20734;-77
2021/10/20 03:35:56;;;;;;;8.23;4.82;;;;;;;9.54;79.88;99871.56;1087816;54;20057;-78
2021/10/20 03:37:00;;;;;;;7.85;4.80;;;;;;;9.50;80.10;99868.31;1087800;54;20046;-77
2021/10/20 03:38:03;;;;;;;8.32;4.68;;;;;;;9.49;79.83;99866.66;1087819;54;20041;-78
2021/10/20 03:39:08;;;;;;;7.45;4.32;;;;;;;9.48;79.90;99860.44;1087681;54;20031;-79
2021/10/20 03:40:10;;;;;;;7.93;4.80;;;;;;;9.49;80.04;99869.31;1087695;54;20038;-78
2021/10/20 03:41:14;;;;;;;5.78;3.90;;;;;;;9.49;79.96;99863.97;1087782;54;20034;-79
2021/10/20 03:42:16;;;;;;;7.70;4.45;;;;;;;9.51;79.88;99864.66;1087753;54;20039;-77
2021/10/20 03:43:23;;;;;;;8.73;4.40;;;;;;;9.50;79.95;99871.81;1087740;54;20031;-78
2021/10/20 03:44:24;;;;;;;7.22;4.53;;;;;;;9.50;80.09;99870.97;1087515;54;20050;-78
2021/10/20 03:45:29;;;;;;;7.72;4.32;;;;;;;9.51;79.81;99872.66;1087654;54;20049;-77
2021/10/20 03:46:33;;;;;;;7.75;4.80;;;;;;;9.49;79.95;99870.13;1088472;39;20638;-77
2021/10/20 03:47:34;;;;;;;6.50;4.28;;;;;;;9.49;79.85;99880.81;1091646;39;20649;-79
2021/10/20 03:48:39;;;;;;;8.38;4.97;;;;;;;9.44;80.09;99877.75;1087817;54;20057;-78
2021/10/20 03:49:40;;;;;;;6.85;4.70;;;;;;;9.41;80.15;99880.69;1087796;39;20724;-79
2021/10/20 03:50:44;;;;;;;8.38;5.35;;;;;;;9.38;79.93;99872.13;1087750;54;20682;-78
2021/10/20 03:51:46;;;;;;;8.85;4.72;;;;;;;9.40;80.04;99876.31;1087701;54;20812;-78
2021/10/20 03:52:50;;;;;;;9.73;4.70;;;;;;;9.38;80.16;99883.63;1087703;54;20034;-78
2021/10/20 03:53:52;;;;;;;7.68;4.43;;;;;;;9.39;79.96;99874.63;1091240;39;20284;-78
2021/10/20 03:54:56;;;;;;;7.38;4.63;;;;;;;9.36;80.02;99873.09;1088454;46;20034;-78
2021/10/20 03:55:57;;;;;;;8.60;4.20;;;;;;;9.39;80.07;99874.63;1087537;54;20057;-78
2021/10/20 03:57:02;;;;;;;7.45;4.25;;;;;;;9.36;80.02;99875.78;1087488;54;20098;-78
2021/10/20 03:58:06;;;;;;;7.28;4.50;;;;;;;9.36;79.83;99877.59;1090881;39;20653;-78
2021/10/20 03:59:10;;;;;;;7.57;4.47;;;;;;;9.28;80.46;99872.97;1087766;54;20046;-79
2021/10/20 04:00:18;;;;;;;9.35;4.90;;;;;;;9.24;80.27;99874.22;1087783;54;20026;-79
2021/10/20 04:01:20;;;;;;;6.38;4.15;;;;;;;9.17;80.33;99873.94;1092756;39;20284;-78
2021/10/20 04:02:24;;;;;;;8.45;5.68;;;;;;;9.20;80.26;99876.31;1087809;54;20037;-79
2021/10/20 04:03:25;;;;;;;6.70;4.50;;;;;;;9.19;80.30;99865.81;1088779;39;20705;-79
2021/10/20 04:04:29;;;;;;;7.13;4.40;;;;;;;9.20;80.27;99867.50;1087791;54;20030;-78
2021/10/20 04:05:31;;;;;;;7.55;4.85;;;;;;;9.18;80.19;99866.78;1090306;39;20182;-78
2021/10/20 04:06:35;;;;;;;5.82;3.92;;;;;;;9.16;80.06;99864.25;1087745;54;20034;-78
2021/10/20 04:07:39;;;;;;;8.57;3.92;;;;;;;9.12;80.23;99854.84;1087760;54;20034;-78
2021/10/20 04:08:44;;;;;;;6.45;3.95;;;;;;;9.13;80.41;99858.34;1087771;54;20022;-78
2021/10/20 04:09:45;;;;;;;5.95;4.30;;;;;;;9.10;80.13;99855.97;1087730;54;20041;-77
2021/10/20 04:10:50;;;;;;;8.43;4.00;;;;;;;9.14;80.18;99858.22;1087697;54;20042;-76
2021/10/20 04:11:51;;;;;;;8.05;4.38;;;;;;;9.13;80.40;99864.53;1087623;54;20037;-77
2021/10/20 04:12:56;;;;;;;7.22;4.50;;;;;;;9.12;80.31;99865.53;1087699;54;20057;-79
2021/10/20 04:13:58;;;;;;;9.52;4.85;;;;;;;9.11;80.23;99866.50;1089202;46;20035;-78
2021/10/20 04:15:05;;;;;;;7.35;4.40;;;;;;;9.07;80.31;99864.25;1087736;54;20031;-78
2021/10/20 04:16:09;;;;;;;8.55;4.80;;;;;;;9.02;80.21;99864.66;1087810;54;20054;-81
2021/10/20 04:17:13;;;;;;;8.07;4.60;;;;;;;9.04;80.23;99873.38;1087847;54;20026;-79
2021/10/20 04:18:14;;;;;;;6.53;4.47;;;;;;;9.05;80.38;99864.41;1089684;46;20058;-79
2021/10/20 04:19:18;;;;;;;7.30;4.20;;;;;;;9.07;80.21;99865.09;1087788;54;20034;-79
2021/10/20 04:20:22;;;;;;;7.05;4.28;;;;;;;9.10;80.27;99872.81;1092046;39;20752;-79
2021/10/20 04:21:27;;;;;;;6.03;4.45;;;;;;;9.09;80.24;99876.47;1087868;54;20053;-79
2021/10/20 04:22:28;;;;;;;6.30;4.20;;;;;;;9.08;80.21;99880.09;1087845;54;20057;-79
2021/10/20 04:23:33;;;;;;;7.40;4.50;;;;;;;9.09;80.06;99873.78;1087921;54;20031;-80
2021/10/20 04:24:34;;;;;;;6.85;4.18;;;;;;;9.09;80.31;99871.13;1087975;54;20038;-79
2021/10/20 04:25:38;;;;;;;6.97;4.55;;;;;;;9.08;80.07;99877.44;1087903;54;20094;-80
2021/10/20 04:26:40;;;;;;;8.02;4.40;;;;;;;9.09;80.18;99870.28;1087888;54;20030;-80
2021/10/20 04:27:44;;;;;;;7.15;4.38;;;;;;;9.08;80.28;99874.78;1088963;39;20662;-78
2021/10/20 04:28:49;;;;;;;7.65;4.80;;;;;;;9.07;80.08;99865.09;1087941;54;20836;-80
2021/10/20 04:29:50;;;;;;;6.63;4.60;;;;;;;9.04;79.96;99865.38;1087849;54;20058;-80
2021/10/20 04:30:57;;;;;;;8.07;5.22;;;;;;;9.07;80.43;99865.09;1087837;54;20081;-80
2021/10/20 04:31:58;;;;;;;7.68;4.80;;;;;;;9.02;80.20;99862.84;1087882;54;20031;-79
2021/10/20 04:33:03;;;;;;;7.95;4.60;;;;;;;9.01;80.08;99863.84;1087832;54;20076;-79
2021/10/20 04:34:05;;;;;;;8.73;4.63;;;;;;;8.99;80.30;99859.59;1089807;39;20693;-79
2021/10/20 04:35:10;;;;;;;7.80;4.38;;;;;;;8.96;80.18;99859.91;1087886;54;20034;-81
2021/10/20 04:36:12;;;;;;;8.68;4.47;;;;;;;8.94;80.28;99867.19;1087858;54;20034;-79
2021/10/20 04:37:23;;;;;;;8.52;4.32;;;;;;;8.89;80.59;99864.94;1087861;54;20037;-79
2021/10/20 04:38:26;;;;;;;;;;;;;;;8.82;80.60;99861.97;1089906;39;20681;-79
2021/10/20 04:39:28;;;;;;;7.43;4.20;;;;;;;8.85;80.56;99858.19;1087846;54;19950;-80
2021/10/20 04:40:32;;;;;;;8.02;4.00;;;;;;;8.85;80.23;99853.72;1088306;46;20022;-78
2021/10/20 04:41:34;;;;;;;8.43;4.65;;;;;;;8.87;80.12;99862.44;1088008;46;20046;-80
2021/10/20 04:42:40;;;;;;;6.57;4.50;;;;;;;8.89;80.35;99855.09;1087819;54;20026;-80
2021/10/20 04:43:44;;;;;;;6.97;4.63;;;;;;;8.91;80.24;99865.66;1089795;39;20697;-79
2021/10/20 04:44:45;;;;;;;7.70;4.45;;;;;;;8.92;80.26;99861.16;1087795;54;20023;-80
2021/10/20 04:45:51;;;;;;;6.43;4.35;;;;;;;8.87;80.28;99865.09;1087835;54;20034;-78
2021/10/20 04:46:55;;;;;;;7.65;4.18;;;;;;;8.88;80.18;99864.09;1087865;54;20038;-79
2021/10/20 04:47:59;;;;;;;7.43;4.15;;;;;;;8.87;80.34;99856.22;1087893;54;21000;-79
2021/10/20 04:49:01;;;;;;;8.63;5.13;;;;;;;8.83;80.29;99850.34;1087852;54;20034;-80
2021/10/20 04:50:07;;;;;;;7.45;4.50;;;;;;;8.86;80.28;99859.88;1087789;54;20034;-79
2021/10/20 04:51:08;;;;;;;6.45;3.75;;;;;;;8.91;80.26;99855.00;1087818;54;20042;-78
2021/10/20 04:52:13;;;;;;;6.97;4.32;;;;;;;8.85;80.30;99845.72;1087844;54;20066;-79
2021/10/20 04:53:15;;;;;;;6.28;4.32;;;;;;;8.82;80.31;99856.66;1087841;54;20031;-79
2021/10/20 04:54:19;;;;;;;6.93;4.00;;;;;;;8.86;80.28;99847.41;1087779;54;20026;-80
2021/10/20 04:55:20;;;;;;;10.15;4.03;;;;;;;8.87;80.32;99845.56;1087479;54;20038;-78
2021/10/20 04:56:25;;;;;;;8.98;3.97;;;;;;;8.88;80.43;99848.09;1087865;54;20038;-80
2021/10/20 04:57:26;;;;;;;7.03;4.30;;;;;;;8.89;80.26;99856.94;1087838;54;20019;-79
2021/10/20 04:58:30;;;;;;;6.78;3.90;;;;;;;8.89;80.21;99848.94;1087799;54;20050;-79
2021/10/20 04:59:34;;;;;;;6.35;3.55;;;;;;;8.88;80.31;99845.41;1088093;39;21042;-78
2021/10/20 05:00:39;;;;;;;6.03;4.22;;;;;;;8.87;80.01;99838.44;1087672;54;20034;-80